Terminal Aerodrome Forecast
Issued by NWS

Home | Current Version | Previous Version | Text Only | Print | Product List | Glossary On
Versions: 1 2 3 4 5 6 7 8 9 10 11 12 13 14 15 16 17 18 19
000
FTUS45 KTFX 282300
TAFLWT
TAF
KLWT 282337Z 2900/2924 32007KT 1SM -SN BR OVC012
      TEMPO 2900/2904 3SM -SN BR OVC022
     FM291600 34006KT P6SM OVC025
     FM292200 34006KT P6SM OVC060=

USA.gov is the U.S. government's official web portal to all federal, state and local government web resources and services.